createdAt,value
2018-09-28T00:00:19.196Z,11.70
2018-09-28T00:02:49.746Z,11.60
2018-09-28T00:05:19.871Z,11.60
2018-09-28T00:07:49.464Z,11.60
2018-09-28T00:10:19.511Z,11.60
2018-09-28T00:12:49.270Z,11.60
2018-09-28T00:15:19.099Z,11.60
2018-09-28T00:17:48.900Z,11.60
2018-09-28T00:20:18.518Z,11.50
2018-09-28T00:22:47.991Z,11.50
2018-09-28T00:25:17.952Z,11.50
2018-09-28T00:27:48.570Z,11.60
2018-09-28T00:30:19.113Z,11.60
2018-09-28T00:32:48.704Z,11.50
2018-09-28T00:35:18.621Z,11.50
2018-09-28T00:37:49.436Z,11.40
2018-09-28T00:40:19.066Z,11.40
2018-09-28T00:42:48.492Z,11.30
2018-09-28T00:45:18.694Z,11.30
2018-09-28T00:47:48.112Z,11.30
2018-09-28T00:50:18.195Z,11.30
2018-09-28T00:52:48.026Z,11.30
2018-09-28T00:55:17.945Z,11.20
2018-09-28T00:57:48.268Z,11.20
2018-09-28T01:00:18.785Z,11.20
2018-09-28T01:02:50.210Z,11.20
2018-09-28T01:05:20.357Z,11.20
2018-09-28T01:07:50.089Z,11.20
2018-09-28T01:10:20.635Z,11.20
2018-09-28T01:12:50.575Z,11.10
2018-09-28T01:15:20.346Z,11.10
2018-09-28T01:17:50.268Z,11.10
2018-09-28T01:20:20.157Z,11.10
2018-09-28T01:22:49.733Z,11.10
2018-09-28T01:25:19.364Z,11.10
2018-09-28T01:27:50.115Z,11.10
2018-09-28T01:30:19.271Z,11.10
2018-09-28T01:32:48.986Z,11.10
2018-09-28T01:35:18.772Z,11.00
2018-09-28T01:37:48.657Z,11.00
2018-09-28T01:40:18.939Z,10.90
2018-09-28T01:42:52.956Z,10.90
2018-09-28T01:45:22.543Z,10.80
2018-09-28T01:47:52.223Z,10.80
2018-09-28T01:50:21.694Z,10.80
2018-09-28T01:52:51.597Z,10.70
2018-09-28T01:55:21.386Z,10.70
2018-09-28T01:57:52.667Z,10.70
2018-09-28T02:00:22.722Z,10.70
2018-09-28T02:02:52.481Z,10.70
2018-09-28T02:05:22.224Z,10.80
2018-09-28T02:07:51.905Z,10.80
2018-09-28T02:10:21.356Z,10.80
2018-09-28T02:12:51.865Z,10.80
2018-09-28T02:15:21.750Z,10.90
2018-09-28T02:17:51.466Z,10.90
2018-09-28T02:20:22.026Z,10.90
2018-09-28T02:22:52.115Z,10.90
2018-09-28T02:25:21.736Z,10.90
2018-09-28T02:27:52.415Z,10.90
2018-09-28T02:30:22.096Z,10.90
2018-09-28T02:32:52.083Z,10.90
2018-09-28T02:35:21.569Z,10.90
2018-09-28T02:37:51.073Z,11.00
2018-09-28T02:40:20.315Z,10.90
2018-09-28T02:42:50.396Z,10.90
2018-09-28T02:45:20.071Z,10.90
2018-09-28T02:47:49.447Z,10.90
2018-09-28T02:50:19.093Z,10.90
2018-09-28T02:52:49.596Z,10.90
2018-09-28T02:55:19.448Z,10.80
2018-09-28T02:57:49.606Z,10.80
2018-09-28T03:00:19.369Z,10.80
2018-09-28T03:02:49.574Z,10.80
2018-09-28T03:05:19.168Z,10.80
2018-09-28T03:07:49.401Z,10.80
2018-09-28T03:10:18.936Z,10.80
2018-09-28T03:12:49.203Z,10.80
2018-09-28T03:15:18.952Z,10.80
2018-09-28T03:17:48.998Z,10.70
2018-09-28T03:20:19.260Z,10.70
2018-09-28T03:22:49.205Z,10.70
2018-09-28T03:25:19.581Z,10.60
2018-09-28T03:27:49.272Z,10.60
2018-09-28T03:30:19.180Z,10.60
2018-09-28T03:32:48.726Z,10.60
2018-09-28T03:35:18.589Z,10.60
2018-09-28T03:37:48.782Z,10.50
2018-09-28T03:40:18.535Z,10.60
2018-09-28T03:42:48.245Z,10.60
2018-09-28T03:45:18.700Z,10.60
2018-09-28T03:47:49.855Z,10.60
2018-09-28T03:50:20.629Z,10.60
2018-09-28T03:52:54.887Z,10.60
2018-09-28T03:55:24.608Z,10.60
2018-09-28T03:57:54.392Z,10.50
2018-09-28T04:00:25.240Z,10.50
2018-09-28T04:02:54.237Z,10.50
2018-09-28T04:05:24.703Z,10.50
2018-09-28T04:07:54.542Z,10.50
2018-09-28T04:10:24.339Z,10.50
2018-09-28T04:12:53.771Z,10.50
2018-09-28T04:15:23.526Z,10.40
2018-09-28T04:17:53.243Z,10.40
2018-09-28T04:20:23.228Z,10.40
2018-09-28T04:22:53.129Z,10.30
2018-09-28T04:25:23.571Z,10.30
2018-09-28T04:27:53.263Z,10.30
2018-09-28T04:30:23.413Z,10.20
2018-09-28T04:32:53.011Z,10.20
2018-09-28T04:35:23.635Z,10.20
2018-09-28T04:38:05.275Z,10.10
2018-09-28T04:40:34.816Z,10.10
2018-09-28T04:43:05.356Z,10.10
2018-09-28T04:45:35.013Z,10.10
2018-09-28T04:48:06.643Z,10.10
2018-09-28T04:50:36.570Z,10.10
2018-09-28T04:53:07.097Z,10.10
2018-09-28T04:55:37.310Z,10.00
2018-09-28T04:58:07.665Z,10.00
2018-09-28T05:00:37.773Z,10.10
2018-09-28T05:03:07.803Z,10.10
2018-09-28T05:05:38.237Z,10.10
2018-09-28T05:08:08.744Z,10.00
2018-09-28T05:10:38.173Z,9.90
2018-09-28T05:13:09.385Z,9.80
2018-09-28T05:15:38.833Z,9.80
2018-09-28T05:18:09.569Z,9.80
2018-09-28T05:20:39.422Z,9.70
2018-09-28T05:23:09.279Z,9.70
2018-09-28T05:25:39.501Z,9.70
2018-09-28T05:28:09.177Z,9.70
2018-09-28T05:30:44.972Z,9.70
2018-09-28T05:33:08.674Z,9.70
2018-09-28T05:35:38.433Z,9.60
2018-09-28T05:38:08.094Z,9.60
2018-09-28T05:40:38.018Z,9.60
2018-09-28T05:43:07.807Z,9.60
2018-09-28T05:45:38.114Z,9.70
2018-09-28T05:48:07.448Z,9.70
2018-09-28T05:50:37.572Z,9.70
2018-09-28T05:53:07.289Z,9.70
2018-09-28T05:55:37.736Z,9.70
2018-09-28T06:00:16.271Z,9.70
2018-09-28T06:02:51.672Z,9.70
2018-09-28T06:05:26.632Z,9.70
2018-09-28T06:07:56.641Z,9.70
2018-09-28T06:10:28.029Z,9.70
2018-09-28T06:12:57.884Z,9.80
2018-09-28T06:15:27.485Z,9.70
2018-09-28T06:17:56.932Z,9.70
2018-09-28T06:20:26.533Z,9.60
2018-09-28T06:22:56.834Z,9.70
2018-09-28T06:25:26.765Z,9.70
2018-09-28T06:27:56.697Z,9.80
2018-09-28T06:30:26.507Z,9.70
2018-09-28T06:32:56.790Z,9.70
2018-09-28T06:35:26.987Z,9.70
2018-09-28T06:37:57.323Z,9.80
2018-09-28T06:40:27.945Z,9.80
2018-09-28T06:42:57.565Z,9.90
2018-09-28T06:45:27.227Z,10.00
2018-09-28T06:47:57.130Z,10.10
2018-09-28T06:50:26.466Z,10.20
2018-09-28T06:52:56.232Z,10.20
2018-09-28T06:55:26.121Z,10.30
2018-09-28T06:57:55.310Z,10.40
2018-09-28T07:00:24.567Z,10.40
2018-09-28T07:02:54.105Z,10.50
2018-09-28T07:05:23.227Z,10.50
2018-09-28T07:07:53.059Z,10.70
2018-09-28T07:10:22.647Z,10.70
2018-09-28T07:12:51.788Z,10.90
2018-09-28T07:15:21.875Z,11.00
2018-09-28T07:17:51.352Z,11.10
2018-09-28T07:20:20.623Z,11.20
2018-09-28T07:22:50.019Z,11.30
2018-09-28T07:25:20.802Z,11.40
2018-09-28T07:27:50.531Z,11.60
2018-09-28T07:30:19.851Z,11.70
2018-09-28T07:32:48.860Z,11.80
2018-09-28T07:35:18.216Z,11.90
2018-09-28T07:37:48.484Z,12.10
2018-09-28T07:40:18.961Z,12.20
2018-09-28T07:42:48.165Z,12.30
2018-09-28T07:45:17.317Z,12.40
2018-09-28T07:47:46.100Z,12.50
2018-09-28T07:50:15.574Z,12.70
2018-09-28T07:52:44.991Z,12.80
2018-09-28T07:55:14.809Z,12.90
2018-09-28T07:57:44.222Z,13.00
2018-09-28T08:00:13.744Z,13.10
2018-09-28T08:02:42.572Z,13.20
2018-09-28T08:05:11.580Z,13.30
2018-09-28T08:07:41.138Z,13.40
2018-09-28T08:10:10.632Z,13.60
2018-09-28T08:12:39.743Z,13.70
2018-09-28T08:15:08.878Z,13.80
2018-09-28T08:17:38.108Z,13.90
2018-09-28T08:20:07.884Z,13.90
2018-09-28T08:22:37.331Z,14.00
2018-09-28T08:25:06.593Z,14.10
2018-09-28T08:27:36.094Z,14.20
2018-09-28T08:30:05.457Z,14.30
2018-09-28T08:32:34.479Z,14.30
2018-09-28T08:35:03.955Z,14.40
2018-09-28T08:37:33.360Z,14.40
2018-09-28T08:40:02.430Z,14.50
2018-09-28T08:42:31.508Z,14.60
2018-09-28T08:45:03.415Z,14.70
2018-09-28T08:47:32.698Z,14.80
2018-09-28T08:50:01.672Z,14.90
2018-09-28T08:52:30.759Z,15.00
2018-09-28T08:54:59.998Z,15.00
2018-09-28T08:57:29.367Z,15.10
2018-09-28T08:59:58.499Z,15.20
2018-09-28T09:02:27.395Z,15.30
2018-09-28T09:04:56.697Z,15.40
2018-09-28T09:07:25.544Z,15.50
2018-09-28T09:09:54.851Z,15.60
2018-09-28T09:12:23.805Z,15.60
2018-09-28T09:14:53.152Z,15.70
2018-09-28T09:17:21.968Z,15.80
2018-09-28T09:19:51.080Z,15.90
2018-09-28T09:22:20.431Z,15.90
2018-09-28T09:24:49.287Z,16.00
2018-09-28T09:27:18.437Z,16.10
2018-09-28T09:29:47.765Z,16.20
2018-09-28T09:32:16.948Z,16.20
2018-09-28T09:34:46.142Z,16.30
2018-09-28T09:37:18.429Z,16.40
2018-09-28T09:39:47.891Z,16.50
2018-09-28T09:42:17.296Z,16.60
2018-09-28T09:44:46.681Z,16.70
2018-09-28T09:47:15.830Z,16.80
2018-09-28T09:49:44.983Z,17.00
2018-09-28T09:52:14.164Z,17.10
2018-09-28T09:54:43.546Z,17.20
2018-09-28T09:57:13.130Z,17.30
2018-09-28T09:59:42.234Z,17.40
2018-09-28T10:02:17.249Z,17.50
2018-09-28T10:04:46.903Z,17.50
2018-09-28T10:07:16.363Z,17.70
2018-09-28T10:09:45.645Z,17.70
2018-09-28T10:12:15.008Z,17.80
2018-09-28T10:14:44.368Z,17.80
2018-09-28T10:17:14.070Z,17.90
2018-09-28T10:19:44.250Z,18.00
2018-09-28T10:22:13.747Z,18.20
2018-09-28T10:24:42.799Z,18.20
2018-09-28T10:27:11.959Z,18.20
2018-09-28T10:29:41.116Z,18.30
2018-09-28T10:32:10.614Z,18.40
2018-09-28T10:34:39.862Z,18.50
2018-09-28T10:37:09.468Z,18.60
2018-09-28T10:39:39.225Z,18.70
2018-09-28T10:42:09.318Z,18.80
2018-09-28T10:44:38.352Z,18.90
2018-09-28T10:47:07.552Z,19.00
2018-09-28T10:49:37.444Z,19.00
2018-09-28T10:52:07.624Z,19.00
2018-09-28T10:54:37.286Z,19.00
2018-09-28T10:57:07.475Z,19.10
2018-09-28T10:59:36.403Z,19.20
2018-09-28T11:02:05.583Z,19.30
2018-09-28T11:04:35.037Z,19.30
2018-09-28T11:07:04.586Z,19.30
2018-09-28T11:09:33.643Z,19.50
2018-09-28T11:12:03.291Z,19.70
2018-09-28T11:14:32.578Z,19.80
2018-09-28T11:17:02.069Z,19.90
2018-09-28T11:19:31.638Z,20.00
2018-09-28T11:22:01.096Z,20.00
2018-09-28T11:24:30.808Z,20.10
2018-09-28T11:27:00.957Z,20.30
2018-09-28T11:29:30.278Z,20.30
2018-09-28T11:31:59.525Z,20.30
2018-09-28T11:34:29.541Z,20.50
2018-09-28T11:36:58.656Z,20.60
2018-09-28T11:39:28.280Z,20.70
2018-09-28T11:41:57.780Z,20.80
2018-09-28T11:44:27.002Z,20.90
2018-09-28T11:46:57.548Z,21.00
2018-09-28T11:49:26.650Z,21.10
2018-09-28T11:51:58.223Z,21.10
2018-09-28T11:54:27.871Z,21.00
2018-09-28T11:56:58.447Z,21.10
2018-09-28T11:59:28.102Z,21.20
2018-09-28T12:01:58.376Z,21.30
2018-09-28T12:04:28.326Z,21.30
2018-09-28T12:06:58.574Z,21.30
2018-09-28T12:09:28.546Z,21.40
2018-09-28T12:11:58.113Z,21.50
2018-09-28T12:14:27.733Z,21.60
2018-09-28T12:16:56.886Z,21.80
2018-09-28T12:19:26.717Z,21.80
2018-09-28T12:21:55.853Z,21.90
2018-09-28T12:24:25.497Z,22.00
2018-09-28T12:26:55.821Z,22.00
2018-09-28T12:29:25.169Z,21.90
2018-09-28T12:31:54.513Z,22.00
2018-09-28T12:34:24.396Z,22.00
2018-09-28T12:36:54.364Z,22.00
2018-09-28T12:39:24.909Z,22.00
2018-09-28T12:41:55.354Z,22.10
2018-09-28T12:44:25.001Z,22.00
2018-09-28T12:46:54.740Z,22.00
2018-09-28T12:49:24.155Z,22.10
2018-09-28T12:51:54.810Z,22.20
2018-09-28T12:54:24.682Z,22.30
2018-09-28T12:56:54.639Z,22.30
2018-09-28T12:59:23.776Z,22.40
2018-09-28T13:01:53.734Z,22.40
2018-09-28T13:04:24.191Z,22.50
2018-09-28T13:06:54.558Z,22.30
2018-09-28T13:09:24.054Z,22.30
2018-09-28T13:11:55.257Z,22.30
2018-09-28T13:14:28.618Z,22.30
2018-09-28T13:17:00.565Z,22.30
2018-09-28T13:19:29.772Z,22.40
2018-09-28T13:22:00.438Z,22.50
2018-09-28T13:24:29.767Z,22.50
2018-09-28T13:26:59.723Z,22.60
2018-09-28T13:29:29.270Z,22.70
2018-09-28T13:31:58.945Z,22.70
2018-09-28T13:34:28.259Z,22.70
2018-09-28T13:36:58.732Z,22.70
2018-09-28T13:39:29.096Z,22.80
2018-09-28T13:41:58.725Z,22.80
2018-09-28T13:44:28.239Z,22.90
2018-09-28T13:46:57.622Z,22.90
2018-09-28T13:49:27.640Z,23.00
2018-09-28T13:51:57.744Z,23.00
2018-09-28T13:54:27.578Z,23.10
2018-09-28T13:56:57.760Z,23.10
2018-09-28T13:59:27.168Z,23.10
2018-09-28T14:01:56.597Z,23.20
2018-09-28T14:04:26.828Z,23.30
2018-09-28T14:06:56.137Z,23.30
2018-09-28T14:09:26.157Z,23.30
2018-09-28T14:11:56.058Z,23.40
2018-09-28T14:14:26.016Z,23.40
2018-09-28T14:16:55.342Z,23.30
2018-09-28T14:19:25.079Z,23.40
2018-09-28T14:21:55.327Z,23.40
2018-09-28T14:24:25.864Z,23.50
2018-09-28T14:26:57.210Z,23.60
2018-09-28T14:29:26.827Z,23.70
2018-09-28T14:31:57.214Z,23.70
2018-09-28T14:34:26.789Z,23.80
2018-09-28T14:36:56.489Z,23.80
2018-09-28T14:39:26.346Z,23.80
2018-09-28T14:41:58.152Z,23.80
2018-09-28T14:44:27.888Z,23.80
2018-09-28T14:46:58.400Z,23.80
2018-09-28T14:49:28.733Z,23.80
2018-09-28T14:51:58.743Z,23.70
2018-09-28T14:54:28.484Z,23.70
2018-09-28T14:57:00.166Z,23.70
2018-09-28T14:59:30.031Z,23.70
2018-09-28T15:02:00.183Z,23.70
2018-09-28T15:04:29.563Z,23.60
2018-09-28T15:07:00.580Z,23.50
2018-09-28T15:09:31.379Z,23.50
2018-09-28T15:12:00.614Z,23.50
2018-09-28T15:14:30.696Z,23.40
2018-09-28T15:17:00.801Z,23.50
2018-09-28T15:19:30.690Z,23.40
2018-09-28T15:22:00.459Z,23.40
2018-09-28T15:24:29.907Z,23.40
2018-09-28T15:26:59.865Z,23.40
2018-09-28T15:29:29.716Z,23.40
2018-09-28T15:31:59.555Z,23.40
2018-09-28T15:34:30.058Z,23.40
2018-09-28T15:36:59.930Z,23.40
2018-09-28T15:39:30.387Z,23.30
2018-09-28T15:42:00.045Z,23.30
2018-09-28T15:46:30.244Z,23.00
2018-09-28T15:49:01.474Z,22.80
2018-09-28T15:51:30.673Z,22.70
2018-09-28T15:54:00.528Z,22.50
2018-09-28T15:56:31.273Z,22.40
2018-09-28T15:59:00.847Z,22.30
2018-09-28T16:01:30.521Z,22.20
2018-09-28T16:04:00.047Z,22.10
2018-09-28T16:06:29.441Z,22.10
2018-09-28T16:08:58.660Z,22.10
2018-09-28T16:11:28.420Z,22.00
2018-09-28T16:13:58.309Z,21.80
2018-09-28T16:16:28.033Z,21.80
2018-09-28T16:18:58.084Z,21.80
2018-09-28T16:21:27.338Z,21.90
2018-09-28T16:23:56.622Z,21.80
2018-09-28T16:26:26.745Z,21.80
2018-09-28T16:28:56.680Z,21.80
2018-09-28T16:31:26.708Z,21.80
2018-09-28T16:33:56.246Z,21.80
2018-09-28T16:36:25.540Z,21.80
2018-09-28T16:38:56.645Z,21.80
2018-09-28T16:41:27.032Z,21.80
2018-09-28T16:43:57.205Z,21.80
2018-09-28T16:46:27.067Z,21.70
2018-09-28T16:48:57.236Z,21.70
2018-09-28T16:51:26.876Z,21.70
2018-09-28T16:53:56.619Z,21.70
2018-09-28T16:56:26.684Z,21.50
2018-09-28T16:58:56.420Z,21.50
2018-09-28T17:01:25.815Z,21.40
2018-09-28T17:03:55.562Z,21.40
2018-09-28T17:06:26.413Z,21.20
2018-09-28T17:08:59.262Z,21.20
2018-09-28T17:11:29.090Z,21.30
2018-09-28T17:13:58.909Z,21.30
2018-09-28T17:16:28.859Z,21.30
2018-09-28T17:18:58.563Z,21.40
2018-09-28T17:21:29.582Z,21.40
2018-09-28T17:24:00.788Z,21.40
2018-09-28T17:26:32.824Z,21.40
2018-09-28T17:29:03.803Z,21.40
2018-09-28T17:31:34.490Z,21.40
2018-09-28T17:34:06.751Z,21.50
2018-09-28T17:36:38.033Z,21.50
2018-09-28T17:39:11.864Z,21.60
2018-09-28T17:41:48.616Z,21.60
2018-09-28T17:44:20.895Z,21.50
2018-09-28T17:46:51.564Z,21.60
2018-09-28T17:49:21.727Z,21.70
2018-09-28T17:51:51.360Z,21.60
2018-09-28T17:54:21.491Z,21.60
2018-09-28T17:56:51.445Z,21.60
2018-09-28T17:59:28.322Z,21.60
2018-09-28T18:02:02.097Z,21.60
2018-09-28T18:04:31.885Z,21.50
2018-09-28T18:07:01.811Z,21.50
2018-09-28T18:09:31.111Z,21.50
2018-09-28T18:12:02.146Z,21.40
2018-09-28T18:14:31.773Z,21.30
2018-09-28T18:17:01.235Z,21.10
2018-09-28T18:19:31.382Z,21.10
2018-09-28T18:22:01.196Z,21.00
2018-09-28T18:24:30.913Z,21.00
2018-09-28T18:27:00.575Z,20.90
2018-09-28T18:29:31.673Z,20.70
2018-09-28T18:32:01.381Z,20.60
2018-09-28T18:34:31.707Z,20.60
2018-09-28T18:37:01.394Z,20.60
2018-09-28T18:39:30.960Z,20.60
2018-09-28T18:42:00.846Z,20.70
2018-09-28T18:44:30.587Z,20.70
2018-09-28T18:47:00.515Z,20.70
2018-09-28T18:49:30.080Z,20.70
2018-09-28T18:51:59.352Z,20.80
2018-09-28T18:54:28.934Z,20.80
2018-09-28T18:56:58.505Z,20.80
2018-09-28T18:59:28.289Z,20.80
2018-09-28T19:01:57.995Z,20.70
2018-09-28T19:04:27.594Z,20.60
2018-09-28T19:06:57.343Z,20.60
2018-09-28T19:09:26.925Z,20.50
2018-09-28T19:11:56.743Z,20.50
2018-09-28T19:14:26.077Z,20.50
2018-09-28T19:16:56.031Z,20.60
2018-09-28T19:19:25.869Z,20.60
2018-09-28T19:21:55.742Z,20.60
2018-09-28T19:24:25.132Z,20.70
2018-09-28T19:26:54.726Z,20.70
2018-09-28T19:29:24.937Z,20.70
2018-09-28T19:31:54.168Z,20.70
2018-09-28T19:34:23.911Z,20.60
2018-09-28T19:36:54.079Z,20.60
2018-09-28T19:39:23.082Z,20.60
2018-09-28T19:41:52.824Z,20.60
2018-09-28T19:44:21.624Z,20.50
2018-09-28T19:46:50.430Z,20.40
2018-09-28T19:49:19.986Z,20.30
2018-09-28T19:51:49.495Z,20.20
2018-09-28T19:54:18.824Z,20.10
2018-09-28T19:56:48.936Z,20.00
2018-09-28T19:59:18.731Z,19.90
2018-09-28T20:01:49.519Z,19.60
2018-09-28T20:04:19.080Z,19.60
2018-09-28T20:06:48.530Z,19.50
2018-09-28T20:09:17.599Z,19.40
2018-09-28T20:11:47.010Z,19.40
2018-09-28T20:14:16.236Z,19.40
2018-09-28T20:16:46.215Z,19.40
2018-09-28T20:19:16.254Z,19.30
2018-09-28T20:21:46.040Z,19.30
2018-09-28T20:24:15.385Z,19.20
2018-09-28T20:26:45.574Z,19.20
2018-09-28T20:29:15.122Z,19.10
2018-09-28T20:31:48.206Z,19.00
2018-09-28T20:34:19.073Z,18.80
2018-09-28T20:36:49.160Z,18.80
2018-09-28T20:39:19.890Z,18.70
2018-09-28T20:41:49.289Z,18.60
2018-09-28T20:44:19.245Z,18.60
2018-09-28T20:46:49.822Z,18.50
2018-09-28T20:49:19.148Z,18.40
2018-09-28T20:51:49.172Z,18.30
2018-09-28T20:54:19.069Z,18.40
2018-09-28T20:56:48.230Z,18.40
2018-09-28T20:59:17.393Z,18.40
2018-09-28T21:01:46.763Z,18.40
2018-09-28T21:04:15.987Z,18.40
2018-09-28T21:06:45.540Z,18.30
2018-09-28T21:09:15.311Z,18.40
2018-09-28T21:11:45.327Z,18.30
2018-09-28T21:14:14.432Z,18.30
2018-09-28T21:16:43.969Z,18.40
2018-09-28T21:19:13.582Z,18.40
2018-09-28T21:21:42.663Z,18.40
2018-09-28T21:24:12.432Z,18.50
2018-09-28T21:26:42.667Z,18.40
2018-09-28T21:29:12.190Z,18.30
2018-09-28T21:31:41.387Z,18.20
2018-09-28T21:34:11.293Z,18.00
2018-09-28T21:36:41.930Z,17.90
2018-09-28T21:39:12.365Z,17.80
2018-09-28T21:41:42.329Z,17.70
2018-09-28T21:44:11.702Z,17.80
2018-09-28T21:46:41.177Z,17.90
2018-09-28T21:49:10.447Z,17.90
2018-09-28T21:51:40.340Z,17.90
2018-09-28T21:54:09.719Z,17.90
2018-09-28T21:56:38.779Z,17.90
2018-09-28T21:59:09.918Z,18.00
2018-09-28T22:01:40.329Z,17.90
2018-09-28T22:04:10.743Z,17.90
2018-09-28T22:06:41.884Z,18.00
2018-09-28T22:11:46.329Z,18.00
2018-09-28T22:14:17.683Z,18.10
2018-09-28T22:16:46.920Z,18.30
2018-09-28T22:19:16.310Z,18.50
2018-09-28T22:21:45.707Z,18.60
2018-09-28T22:24:15.902Z,18.60
2018-09-28T22:26:45.973Z,18.50
2018-09-28T22:29:14.996Z,18.50
2018-09-28T22:31:44.671Z,18.50
2018-09-28T22:34:15.130Z,18.50
2018-09-28T22:36:45.450Z,18.40
2018-09-28T22:39:16.403Z,18.40
2018-09-28T22:41:45.886Z,18.40
2018-09-28T22:44:15.381Z,18.40
2018-09-28T22:46:44.848Z,18.40
2018-09-28T22:49:14.023Z,18.30
2018-09-28T22:51:44.095Z,18.30
2018-09-28T22:54:13.171Z,18.30
2018-09-28T22:56:42.804Z,18.20
2018-09-28T22:59:12.071Z,17.90
2018-09-28T23:01:41.703Z,17.70
2018-09-28T23:04:11.185Z,17.70
2018-09-28T23:06:40.191Z,17.60
2018-09-28T23:09:10.419Z,17.60
2018-09-28T23:11:40.163Z,17.60
2018-09-28T23:14:09.372Z,17.50
2018-09-28T23:16:38.630Z,17.30
2018-09-28T23:19:07.698Z,17.30
2018-09-28T23:21:38.071Z,17.30
2018-09-28T23:24:08.016Z,17.20
2018-09-28T23:26:37.370Z,17.30
2018-09-28T23:29:06.948Z,17.30
2018-09-28T23:31:37.063Z,17.40
2018-09-28T23:34:06.429Z,17.30
2018-09-28T23:36:36.507Z,17.20
2018-09-28T23:39:08.407Z,17.00
2018-09-28T23:41:37.961Z,17.00
2018-09-28T23:44:08.320Z,17.00
2018-09-28T23:46:38.335Z,17.00
2018-09-28T23:49:08.712Z,17.00
2018-09-28T23:51:38.838Z,17.00
2018-09-28T23:54:07.798Z,17.00
2018-09-28T23:56:37.316Z,17.00
2018-09-28T23:59:06.545Z,17.00
